sensor_id;sensor_type;location;lat;lon;timestamp;temperature;humidity
24522;DHT22;12680;57.804;12.190;2022-10-23T00:01:39;11.60;99.90
24522;DHT22;12680;57.804;12.190;2022-10-23T00:04:17;11.50;99.90
24522;DHT22;12680;57.804;12.190;2022-10-23T00:06:46;11.50;99.90
24522;DHT22;12680;57.804;12.190;2022-10-23T00:09:15;11.50;99.90
24522;DHT22;12680;57.804;12.190;2022-10-23T00:11:44;11.40;99.90
24522;DHT22;12680;57.804;12.190;2022-10-23T00:14:14;11.50;99.90
24522;DHT22;12680;57.804;12.190;2022-10-23T00:16:42;11.40;99.90
24522;DHT22;12680;57.804;12.190;2022-10-23T00:19:10;11.40;99.90
24522;DHT22;12680;57.804;12.190;2022-10-23T00:21:37;11.40;99.90
24522;DHT22;12680;57.804;12.190;2022-10-23T00:24:06;11.40;99.90
24522;DHT22;12680;57.804;12.190;2022-10-23T00:26:36;11.30;99.90
24522;DHT22;12680;57.804;12.190;2022-10-23T00:29:07;11.30;99.90
24522;DHT22;12680;57.804;12.190;2022-10-23T00:31:36;11.30;99.90
24522;DHT22;12680;57.804;12.190;2022-10-23T00:34:03;11.20;99.90
24522;DHT22;12680;57.804;12.190;2022-10-23T00:36:34;11.30;99.90
24522;DHT22;12680;57.804;12.190;2022-10-23T00:39:03;11.30;99.90
24522;DHT22;12680;57.804;12.190;2022-10-23T00:41:31;11.40;99.90
24522;DHT22;12680;57.804;12.190;2022-10-23T00:46:46;11.40;99.90
24522;DHT22;12680;57.804;12.190;2022-10-23T00:49:14;11.40;99.90
24522;DHT22;12680;57.804;12.190;2022-10-23T00:51:47;11.50;99.90
24522;DHT22;12680;57.804;12.190;2022-10-23T00:54:18;11.50;99.90
24522;DHT22;12680;57.804;12.190;2022-10-23T00:56:54;11.50;99.90
24522;DHT22;12680;57.804;12.190;2022-10-23T00:59:22;11.60;99.90
24522;DHT22;12680;57.804;12.190;2022-10-23T01:01:49;11.60;99.90
24522;DHT22;12680;57.804;12.190;2022-10-23T01:04:17;11.60;99.90
24522;DHT22;12680;57.804;12.190;2022-10-23T01:07:01;11.60;99.90
24522;DHT22;12680;57.804;12.190;2022-10-23T01:09:46;11.60;99.90
24522;DHT22;12680;57.804;12.190;2022-10-23T01:17:40;11.60;99.90
24522;DHT22;12680;57.804;12.190;2022-10-23T01:20:18;11.50;99.90
24522;DHT22;12680;57.804;12.190;2022-10-23T01:28:28;11.50;99.90
24522;DHT22;12680;57.804;12.190;2022-10-23T01:30:58;11.50;99.90
24522;DHT22;12680;57.804;12.190;2022-10-23T01:33:38;11.50;99.90
24522;DHT22;12680;57.804;12.190;2022-10-23T01:36:11;11.50;99.90
24522;DHT22;12680;57.804;12.190;2022-10-23T01:39:07;11.60;99.90
24522;DHT22;12680;57.804;12.190;2022-10-23T01:44:10;11.50;99.90
24522;DHT22;12680;57.804;12.190;2022-10-23T01:46:42;11.60;99.90
24522;DHT22;12680;57.804;12.190;2022-10-23T01:49:12;11.50;99.90
24522;DHT22;12680;57.804;12.190;2022-10-23T01:51:43;11.60;99.90
24522;DHT22;12680;57.804;12.190;2022-10-23T01:54:13;11.50;99.90
24522;DHT22;12680;57.804;12.190;2022-10-23T01:56:45;11.60;99.90
24522;DHT22;12680;57.804;12.190;2022-10-23T01:59:24;11.60;99.90
24522;DHT22;12680;57.804;12.190;2022-10-23T02:01:55;11.60;99.90
24522;DHT22;12680;57.804;12.190;2022-10-23T02:04:30;11.50;99.90
24522;DHT22;12680;57.804;12.190;2022-10-23T02:06:59;11.50;99.90
24522;DHT22;12680;57.804;12.190;2022-10-23T02:09:27;11.50;99.90
24522;DHT22;12680;57.804;12.190;2022-10-23T02:17:08;11.60;99.90
24522;DHT22;12680;57.804;12.190;2022-10-23T02:19:40;11.50;99.90
24522;DHT22;12680;57.804;12.190;2022-10-23T02:24:48;11.60;99.90
24522;DHT22;12680;57.804;12.190;2022-10-23T02:27:30;11.50;99.90
24522;DHT22;12680;57.804;12.190;2022-10-23T02:30:08;11.50;99.90
24522;DHT22;12680;57.804;12.190;2022-10-23T02:32:40;11.50;99.90
24522;DHT22;12680;57.804;12.190;2022-10-23T02:35:08;11.50;99.90
24522;DHT22;12680;57.804;12.190;2022-10-23T02:37:36;11.40;99.90
24522;DHT22;12680;57.804;12.190;2022-10-23T02:40:06;11.50;99.90
24522;DHT22;12680;57.804;12.190;2022-10-23T02:43:00;12.30;99.90
24522;DHT22;12680;57.804;12.190;2022-10-23T02:48:50;11.50;99.90
24522;DHT22;12680;57.804;12.190;2022-10-23T02:54:29;11.40;99.90
24522;DHT22;12680;57.804;12.190;2022-10-23T02:57:02;11.50;99.90
24522;DHT22;12680;57.804;12.190;2022-10-23T02:59:40;11.50;99.90
24522;DHT22;12680;57.804;12.190;2022-10-23T03:02:23;11.50;99.90
24522;DHT22;12680;57.804;12.190;2022-10-23T03:04:53;11.60;99.90
24522;DHT22;12680;57.804;12.190;2022-10-23T03:07:24;11.50;99.90
24522;DHT22;12680;57.804;12.190;2022-10-23T03:09:52;11.50;99.90
24522;DHT22;12680;57.804;12.190;2022-10-23T03:12:19;11.50;99.90
24522;DHT22;12680;57.804;12.190;2022-10-23T03:14:47;11.60;99.90
24522;DHT22;12680;57.804;12.190;2022-10-23T03:17:15;11.50;99.90
24522;DHT22;12680;57.804;12.190;2022-10-23T03:19:42;11.60;99.90
24522;DHT22;12680;57.804;12.190;2022-10-23T03:22:10;11.60;99.90
24522;DHT22;12680;57.804;12.190;2022-10-23T03:24:37;11.70;99.90
24522;DHT22;12680;57.804;12.190;2022-10-23T03:27:05;11.60;99.90
24522;DHT22;12680;57.804;12.190;2022-10-23T03:29:33;11.70;99.90
24522;DHT22;12680;57.804;12.190;2022-10-23T03:32:01;11.70;99.90
24522;DHT22;12680;57.804;12.190;2022-10-23T03:34:29;11.70;99.90
24522;DHT22;12680;57.804;12.190;2022-10-23T03:36:57;11.70;99.90
24522;DHT22;12680;57.804;12.190;2022-10-23T03:39:25;11.70;99.90
24522;DHT22;12680;57.804;12.190;2022-10-23T03:41:53;11.70;99.90
24522;DHT22;12680;57.804;12.190;2022-10-23T03:44:20;11.80;99.90
24522;DHT22;12680;57.804;12.190;2022-10-23T03:46:48;11.70;99.90
24522;DHT22;12680;57.804;12.190;2022-10-23T03:49:16;11.80;99.90
24522;DHT22;12680;57.804;12.190;2022-10-23T03:51:45;11.80;99.90
24522;DHT22;12680;57.804;12.190;2022-10-23T03:54:20;11.80;99.90
24522;DHT22;12680;57.804;12.190;2022-10-23T03:56:49;11.80;99.90
24522;DHT22;12680;57.804;12.190;2022-10-23T03:59:22;11.80;99.90
24522;DHT22;12680;57.804;12.190;2022-10-23T04:01:50;11.70;99.90
24522;DHT22;12680;57.804;12.190;2022-10-23T04:04:18;11.70;99.90
24522;DHT22;12680;57.804;12.190;2022-10-23T04:06:46;11.70;99.90
24522;DHT22;12680;57.804;12.190;2022-10-23T04:09:14;11.70;99.90
24522;DHT22;12680;57.804;12.190;2022-10-23T04:11:42;11.70;99.90
24522;DHT22;12680;57.804;12.190;2022-10-23T04:14:12;11.70;99.90
24522;DHT22;12680;57.804;12.190;2022-10-23T04:16:40;11.80;99.90
24522;DHT22;12680;57.804;12.190;2022-10-23T04:19:09;11.80;99.90
24522;DHT22;12680;57.804;12.190;2022-10-23T04:21:37;11.80;99.90
24522;DHT22;12680;57.804;12.190;2022-10-23T04:24:04;11.80;99.90
24522;DHT22;12680;57.804;12.190;2022-10-23T04:26:32;11.80;99.90
24522;DHT22;12680;57.804;12.190;2022-10-23T04:28:59;11.80;99.90
24522;DHT22;12680;57.804;12.190;2022-10-23T04:31:26;11.80;99.90
24522;DHT22;12680;57.804;12.190;2022-10-23T04:33:53;11.90;99.90
24522;DHT22;12680;57.804;12.190;2022-10-23T04:36:21;11.90;99.90
24522;DHT22;12680;57.804;12.190;2022-10-23T04:38:48;11.90;99.90
24522;DHT22;12680;57.804;12.190;2022-10-23T04:41:16;11.90;99.90
24522;DHT22;12680;57.804;12.190;2022-10-23T04:43:43;11.90;99.90
24522;DHT22;12680;57.804;12.190;2022-10-23T04:46:10;11.90;99.90
24522;DHT22;12680;57.804;12.190;2022-10-23T04:48:38;12.00;99.90
24522;DHT22;12680;57.804;12.190;2022-10-23T04:51:05;12.00;99.90
24522;DHT22;12680;57.804;12.190;2022-10-23T04:53:33;12.00;99.90
24522;DHT22;12680;57.804;12.190;2022-10-23T04:56:01;12.00;99.90
24522;DHT22;12680;57.804;12.190;2022-10-23T04:58:28;12.00;99.90
24522;DHT22;12680;57.804;12.190;2022-10-23T05:00:56;12.00;99.90
24522;DHT22;12680;57.804;12.190;2022-10-23T05:03:24;12.00;99.90
24522;DHT22;12680;57.804;12.190;2022-10-23T05:05:53;12.10;99.90
24522;DHT22;12680;57.804;12.190;2022-10-23T05:08:22;12.00;99.90
24522;DHT22;12680;57.804;12.190;2022-10-23T05:10:50;12.00;99.90
24522;DHT22;12680;57.804;12.190;2022-10-23T05:13:18;12.00;99.90
24522;DHT22;12680;57.804;12.190;2022-10-23T05:15:47;12.10;99.90
24522;DHT22;12680;57.804;12.190;2022-10-23T05:18:25;12.10;99.90
24522;DHT22;12680;57.804;12.190;2022-10-23T05:21:31;12.10;99.90
24522;DHT22;12680;57.804;12.190;2022-10-23T05:23:53;12.10;99.90
24522;DHT22;12680;57.804;12.190;2022-10-23T05:26:20;12.10;99.90
24522;DHT22;12680;57.804;12.190;2022-10-23T05:28:48;12.10;99.90
24522;DHT22;12680;57.804;12.190;2022-10-23T05:31:17;12.20;99.90
24522;DHT22;12680;57.804;12.190;2022-10-23T05:33:45;12.20;99.90
24522;DHT22;12680;57.804;12.190;2022-10-23T05:36:13;12.20;99.90
24522;DHT22;12680;57.804;12.190;2022-10-23T05:38:40;12.30;99.90
24522;DHT22;12680;57.804;12.190;2022-10-23T05:41:08;12.30;99.90
24522;DHT22;12680;57.804;12.190;2022-10-23T05:43:35;12.30;99.90
24522;DHT22;12680;57.804;12.190;2022-10-23T05:46:05;12.30;99.90
24522;DHT22;12680;57.804;12.190;2022-10-23T05:48:33;12.30;99.90
24522;DHT22;12680;57.804;12.190;2022-10-23T05:51:06;12.30;99.90
24522;DHT22;12680;57.804;12.190;2022-10-23T05:53:33;12.30;99.90
24522;DHT22;12680;57.804;12.190;2022-10-23T05:56:06;12.40;99.90
24522;DHT22;12680;57.804;12.190;2022-10-23T05:58:34;12.40;99.90
24522;DHT22;12680;57.804;12.190;2022-10-23T06:01:06;12.40;99.90
24522;DHT22;12680;57.804;12.190;2022-10-23T06:03:34;12.40;99.90
24522;DHT22;12680;57.804;12.190;2022-10-23T06:06:02;12.50;99.90
24522;DHT22;12680;57.804;12.190;2022-10-23T06:08:30;12.50;99.90
24522;DHT22;12680;57.804;12.190;2022-10-23T06:11:03;12.50;99.90
24522;DHT22;12680;57.804;12.190;2022-10-23T06:13:31;12.60;99.90
24522;DHT22;12680;57.804;12.190;2022-10-23T06:15:58;12.60;99.90
24522;DHT22;12680;57.804;12.190;2022-10-23T06:18:25;12.70;99.90
24522;DHT22;12680;57.804;12.190;2022-10-23T06:20:53;12.70;99.90
24522;DHT22;12680;57.804;12.190;2022-10-23T06:23:20;12.70;99.90
24522;DHT22;12680;57.804;12.190;2022-10-23T06:25:51;12.70;99.90
24522;DHT22;12680;57.804;12.190;2022-10-23T06:28:20;12.70;99.90
24522;DHT22;12680;57.804;12.190;2022-10-23T06:30:47;12.80;99.90
24522;DHT22;12680;57.804;12.190;2022-10-23T06:33:14;12.80;99.90
24522;DHT22;12680;57.804;12.190;2022-10-23T06:35:41;12.90;99.90
24522;DHT22;12680;57.804;12.190;2022-10-23T06:38:08;12.90;99.90
24522;DHT22;12680;57.804;12.190;2022-10-23T06:40:37;12.90;99.90
24522;DHT22;12680;57.804;12.190;2022-10-23T06:43:04;13.00;99.90
24522;DHT22;12680;57.804;12.190;2022-10-23T06:45:32;13.00;99.90
24522;DHT22;12680;57.804;12.190;2022-10-23T06:48:00;13.00;99.90
24522;DHT22;12680;57.804;12.190;2022-10-23T06:50:27;13.10;99.90
24522;DHT22;12680;57.804;12.190;2022-10-23T06:52:57;13.20;99.90
24522;DHT22;12680;57.804;12.190;2022-10-23T06:55:25;13.20;99.90
24522;DHT22;12680;57.804;12.190;2022-10-23T06:57:52;13.30;99.90
24522;DHT22;12680;57.804;12.190;2022-10-23T07:00:19;13.30;99.90
24522;DHT22;12680;57.804;12.190;2022-10-23T07:02:47;13.30;99.90
24522;DHT22;12680;57.804;12.190;2022-10-23T07:05:15;13.30;99.90
24522;DHT22;12680;57.804;12.190;2022-10-23T07:07:42;13.30;99.90
24522;DHT22;12680;57.804;12.190;2022-10-23T07:10:09;13.30;99.90
24522;DHT22;12680;57.804;12.190;2022-10-23T07:12:36;13.30;99.90
24522;DHT22;12680;57.804;12.190;2022-10-23T07:15:04;13.40;99.90
24522;DHT22;12680;57.804;12.190;2022-10-23T07:17:31;13.40;99.90
24522;DHT22;12680;57.804;12.190;2022-10-23T07:19:59;13.30;99.90
24522;DHT22;12680;57.804;12.190;2022-10-23T07:22:27;13.40;99.90
24522;DHT22;12680;57.804;12.190;2022-10-23T07:24:54;13.40;99.90
24522;DHT22;12680;57.804;12.190;2022-10-23T07:27:22;13.50;99.90
24522;DHT22;12680;57.804;12.190;2022-10-23T07:29:50;13.50;99.90
24522;DHT22;12680;57.804;12.190;2022-10-23T07:32:18;13.60;99.90
24522;DHT22;12680;57.804;12.190;2022-10-23T07:34:45;13.60;99.90
24522;DHT22;12680;57.804;12.190;2022-10-23T07:37:12;13.60;99.90
24522;DHT22;12680;57.804;12.190;2022-10-23T07:39:39;13.60;99.90
24522;DHT22;12680;57.804;12.190;2022-10-23T07:42:08;13.60;99.90
24522;DHT22;12680;57.804;12.190;2022-10-23T07:44:36;13.70;99.90
24522;DHT22;12680;57.804;12.190;2022-10-23T07:47:03;13.70;99.90
24522;DHT22;12680;57.804;12.190;2022-10-23T07:49:30;13.70;99.90
24522;DHT22;12680;57.804;12.190;2022-10-23T07:51:57;13.70;99.90
24522;DHT22;12680;57.804;12.190;2022-10-23T07:54:25;13.80;99.90
24522;DHT22;12680;57.804;12.190;2022-10-23T07:56:52;13.80;99.90
24522;DHT22;12680;57.804;12.190;2022-10-23T07:59:19;13.90;99.90
24522;DHT22;12680;57.804;12.190;2022-10-23T08:01:46;13.90;99.90
24522;DHT22;12680;57.804;12.190;2022-10-23T08:04:18;13.90;99.90
24522;DHT22;12680;57.804;12.190;2022-10-23T08:06:45;13.90;99.90
24522;DHT22;12680;57.804;12.190;2022-10-23T08:09:12;13.90;99.90
24522;DHT22;12680;57.804;12.190;2022-10-23T08:11:39;13.90;99.90
24522;DHT22;12680;57.804;12.190;2022-10-23T08:14:07;13.90;99.90
24522;DHT22;12680;57.804;12.190;2022-10-23T08:16:36;13.90;99.90
24522;DHT22;12680;57.804;12.190;2022-10-23T08:19:05;13.90;99.90
24522;DHT22;12680;57.804;12.190;2022-10-23T08:21:33;13.90;99.90
24522;DHT22;12680;57.804;12.190;2022-10-23T08:24:00;14.00;99.90
24522;DHT22;12680;57.804;12.190;2022-10-23T08:26:28;13.90;99.90
24522;DHT22;12680;57.804;12.190;2022-10-23T08:28:57;13.90;99.90
24522;DHT22;12680;57.804;12.190;2022-10-23T08:31:25;14.00;99.90
24522;DHT22;12680;57.804;12.190;2022-10-23T08:33:53;14.00;99.90
24522;DHT22;12680;57.804;12.190;2022-10-23T08:36:22;13.90;99.90
24522;DHT22;12680;57.804;12.190;2022-10-23T08:38:51;14.00;99.90
24522;DHT22;12680;57.804;12.190;2022-10-23T08:44:07;14.20;99.90
24522;DHT22;12680;57.804;12.190;2022-10-23T08:46:36;14.30;99.90
24522;DHT22;12680;57.804;12.190;2022-10-23T08:51:46;14.40;99.90
24522;DHT22;12680;57.804;12.190;2022-10-23T08:54:22;14.40;99.90
24522;DHT22;12680;57.804;12.190;2022-10-23T08:57:02;14.40;99.90
24522;DHT22;12680;57.804;12.190;2022-10-23T08:59:36;14.40;99.90
24522;DHT22;12680;57.804;12.190;2022-10-23T09:02:20;14.40;99.90
24522;DHT22;12680;57.804;12.190;2022-10-23T09:04:50;14.40;99.90
24522;DHT22;12680;57.804;12.190;2022-10-23T09:07:55;14.40;99.90
24522;DHT22;12680;57.804;12.190;2022-10-23T09:16:10;14.30;99.90
24522;DHT22;12680;57.804;12.190;2022-10-23T09:18:41;14.30;99.90
24522;DHT22;12680;57.804;12.190;2022-10-23T09:21:09;14.30;99.90
24522;DHT22;12680;57.804;12.190;2022-10-23T09:23:37;14.40;99.90
24522;DHT22;12680;57.804;12.190;2022-10-23T09:26:15;14.50;99.90
24522;DHT22;12680;57.804;12.190;2022-10-23T09:28:51;14.60;99.90
24522;DHT22;12680;57.804;12.190;2022-10-23T09:31:21;14.60;99.90
24522;DHT22;12680;57.804;12.190;2022-10-23T09:33:56;14.70;99.90
24522;DHT22;12680;57.804;12.190;2022-10-23T09:36:24;14.80;99.90
24522;DHT22;12680;57.804;12.190;2022-10-23T09:38:59;14.80;99.90
24522;DHT22;12680;57.804;12.190;2022-10-23T09:49:33;14.80;99.90
24522;DHT22;12680;57.804;12.190;2022-10-23T09:54:56;14.70;99.90
24522;DHT22;12680;57.804;12.190;2022-10-23T09:57:36;14.70;99.90
24522;DHT22;12680;57.804;12.190;2022-10-23T10:02:53;14.90;99.90
24522;DHT22;12680;57.804;12.190;2022-10-23T10:05:34;15.00;99.90
24522;DHT22;12680;57.804;12.190;2022-10-23T10:10:36;15.10;99.90
24522;DHT22;12680;57.804;12.190;2022-10-23T10:15:51;15.10;99.90
24522;DHT22;12680;57.804;12.190;2022-10-23T10:18:30;15.10;99.90
24522;DHT22;12680;57.804;12.190;2022-10-23T10:21:17;15.00;99.90
24522;DHT22;12680;57.804;12.190;2022-10-23T10:24:05;15.00;99.90
24522;DHT22;12680;57.804;12.190;2022-10-23T10:26:56;14.90;99.90
24522;DHT22;12680;57.804;12.190;2022-10-23T10:32:46;15.00;99.90
24522;DHT22;12680;57.804;12.190;2022-10-23T10:35:24;15.00;99.90
24522;DHT22;12680;57.804;12.190;2022-10-23T10:38:09;15.00;99.90
24522;DHT22;12680;57.804;12.190;2022-10-23T10:46:45;15.00;99.90
24522;DHT22;12680;57.804;12.190;2022-10-23T10:52:15;15.00;99.90
24522;DHT22;12680;57.804;12.190;2022-10-23T10:57:41;14.90;99.90
24522;DHT22;12680;57.804;12.190;2022-10-23T11:00:19;14.90;99.90
24522;DHT22;12680;57.804;12.190;2022-10-23T11:05:31;15.00;99.90
24522;DHT22;12680;57.804;12.190;2022-10-23T11:11:36;15.00;99.90
24522;DHT22;12680;57.804;12.190;2022-10-23T11:14:17;15.00;99.90
24522;DHT22;12680;57.804;12.190;2022-10-23T11:16:50;15.00;99.90
24522;DHT22;12680;57.804;12.190;2022-10-23T11:30:34;15.00;99.90
24522;DHT22;12680;57.804;12.190;2022-10-23T11:36:17;15.10;99.90
24522;DHT22;12680;57.804;12.190;2022-10-23T11:38:48;15.20;99.90
24522;DHT22;12680;57.804;12.190;2022-10-23T11:41:19;15.20;99.90
24522;DHT22;12680;57.804;12.190;2022-10-23T11:43:57;15.10;99.90
24522;DHT22;12680;57.804;12.190;2022-10-23T11:48:59;15.20;99.90
24522;DHT22;12680;57.804;12.190;2022-10-23T11:51:37;15.20;99.90
24522;DHT22;12680;57.804;12.190;2022-10-23T12:04:48;15.20;99.90
24522;DHT22;12680;57.804;12.190;2022-10-23T12:07:31;15.20;99.90
24522;DHT22;12680;57.804;12.190;2022-10-23T12:12:57;15.10;99.90
24522;DHT22;12680;57.804;12.190;2022-10-23T12:15:26;14.90;99.90
24522;DHT22;12680;57.804;12.190;2022-10-23T12:17:54;14.90;99.90
24522;DHT22;12680;57.804;12.190;2022-10-23T12:23:38;14.80;99.90
24522;DHT22;12680;57.804;12.190;2022-10-23T12:26:24;14.70;99.90
24522;DHT22;12680;57.804;12.190;2022-10-23T12:29:07;14.60;99.90
24522;DHT22;12680;57.804;12.190;2022-10-23T12:34:47;14.40;99.90
24522;DHT22;12680;57.804;12.190;2022-10-23T12:40:24;14.20;99.90
24522;DHT22;12680;57.804;12.190;2022-10-23T12:42:58;14.20;99.90
24522;DHT22;12680;57.804;12.190;2022-10-23T12:45:31;14.20;99.90
24522;DHT22;12680;57.804;12.190;2022-10-23T12:48:00;14.20;99.90
24522;DHT22;12680;57.804;12.190;2022-10-23T12:50:33;14.20;99.90
24522;DHT22;12680;57.804;12.190;2022-10-23T12:53:15;14.20;99.90
24522;DHT22;12680;57.804;12.190;2022-10-23T12:55:59;14.10;99.90
24522;DHT22;12680;57.804;12.190;2022-10-23T12:58:32;14.10;99.90
24522;DHT22;12680;57.804;12.190;2022-10-23T13:01:02;14.10;99.90
24522;DHT22;12680;57.804;12.190;2022-10-23T13:03:31;14.10;99.90
24522;DHT22;12680;57.804;12.190;2022-10-23T13:06:00;14.10;99.90
24522;DHT22;12680;57.804;12.190;2022-10-23T13:08:42;14.20;99.90
24522;DHT22;12680;57.804;12.190;2022-10-23T13:11:15;14.10;99.90
24522;DHT22;12680;57.804;12.190;2022-10-23T13:13:44;14.10;99.90
24522;DHT22;12680;57.804;12.190;2022-10-23T13:16:15;14.10;99.90
24522;DHT22;12680;57.804;12.190;2022-10-23T13:18:43;14.10;99.90
24522;DHT22;12680;57.804;12.190;2022-10-23T13:21:20;14.10;99.90
24522;DHT22;12680;57.804;12.190;2022-10-23T13:23:48;14.10;99.90
24522;DHT22;12680;57.804;12.190;2022-10-23T13:28:56;14.20;99.90
24522;DHT22;12680;57.804;12.190;2022-10-23T13:36:30;14.20;99.90
24522;DHT22;12680;57.804;12.190;2022-10-23T13:41:35;14.20;99.90
24522;DHT22;12680;57.804;12.190;2022-10-23T13:44:04;14.20;99.90
24522;DHT22;12680;57.804;12.190;2022-10-23T13:46:31;14.20;99.90
24522;DHT22;12680;57.804;12.190;2022-10-23T13:48:59;14.20;99.90
24522;DHT22;12680;57.804;12.190;2022-10-23T13:51:32;14.20;99.90
24522;DHT22;12680;57.804;12.190;2022-10-23T13:54:16;14.20;99.90
24522;DHT22;12680;57.804;12.190;2022-10-23T13:56:43;14.20;99.90
24522;DHT22;12680;57.804;12.190;2022-10-23T13:59:11;14.20;99.90
24522;DHT22;12680;57.804;12.190;2022-10-23T14:01:39;14.20;99.90
24522;DHT22;12680;57.804;12.190;2022-10-23T14:04:11;14.10;99.90
24522;DHT22;12680;57.804;12.190;2022-10-23T14:06:39;14.10;99.90
24522;DHT22;12680;57.804;12.190;2022-10-23T14:09:08;14.10;99.90
24522;DHT22;12680;57.804;12.190;2022-10-23T14:11:37;14.10;99.90
24522;DHT22;12680;57.804;12.190;2022-10-23T14:14:04;14.20;99.90
24522;DHT22;12680;57.804;12.190;2022-10-23T14:16:31;14.10;99.90
24522;DHT22;12680;57.804;12.190;2022-10-23T14:18:59;14.10;99.90
24522;DHT22;12680;57.804;12.190;2022-10-23T14:21:27;14.10;99.90
24522;DHT22;12680;57.804;12.190;2022-10-23T14:23:54;14.10;99.90
24522;DHT22;12680;57.804;12.190;2022-10-23T14:26:23;14.10;99.90
24522;DHT22;12680;57.804;12.190;2022-10-23T14:28:52;14.10;99.90
24522;DHT22;12680;57.804;12.190;2022-10-23T14:31:20;14.10;99.90
24522;DHT22;12680;57.804;12.190;2022-10-23T14:33:58;14.00;99.90
24522;DHT22;12680;57.804;12.190;2022-10-23T14:36:37;14.00;99.90
24522;DHT22;12680;57.804;12.190;2022-10-23T14:39:30;14.10;99.90
24522;DHT22;12680;57.804;12.190;2022-10-23T14:41:57;14.00;99.90
24522;DHT22;12680;57.804;12.190;2022-10-23T14:44:25;14.00;99.90
24522;DHT22;12680;57.804;12.190;2022-10-23T14:46:52;14.00;99.90
24522;DHT22;12680;57.804;12.190;2022-10-23T14:49:19;13.90;99.90
24522;DHT22;12680;57.804;12.190;2022-10-23T14:51:50;13.90;99.90
24522;DHT22;12680;57.804;12.190;2022-10-23T14:54:19;13.80;99.90
24522;DHT22;12680;57.804;12.190;2022-10-23T14:56:51;13.80;99.90
24522;DHT22;12680;57.804;12.190;2022-10-23T14:59:27;13.80;99.90
24522;DHT22;12680;57.804;12.190;2022-10-23T15:01:58;13.80;99.90
24522;DHT22;12680;57.804;12.190;2022-10-23T15:04:26;13.70;99.90
24522;DHT22;12680;57.804;12.190;2022-10-23T15:06:58;13.70;99.90
24522;DHT22;12680;57.804;12.190;2022-10-23T15:09:25;13.70;99.90
24522;DHT22;12680;57.804;12.190;2022-10-23T15:11:53;13.70;99.90
24522;DHT22;12680;57.804;12.190;2022-10-23T15:14:20;13.70;99.90
24522;DHT22;12680;57.804;12.190;2022-10-23T15:16:48;13.70;99.90
24522;DHT22;12680;57.804;12.190;2022-10-23T15:19:17;13.70;99.90
24522;DHT22;12680;57.804;12.190;2022-10-23T15:21:46;13.70;99.90
24522;DHT22;12680;57.804;12.190;2022-10-23T15:24:17;13.80;99.90
24522;DHT22;12680;57.804;12.190;2022-10-23T15:26:45;13.70;99.90
24522;DHT22;12680;57.804;12.190;2022-10-23T15:29:13;13.70;99.90
24522;DHT22;12680;57.804;12.190;2022-10-23T15:31:42;13.80;99.90
24522;DHT22;12680;57.804;12.190;2022-10-23T15:34:19;13.70;99.90
24522;DHT22;12680;57.804;12.190;2022-10-23T15:36:47;13.60;99.90
24522;DHT22;12680;57.804;12.190;2022-10-23T15:39:18;13.60;99.90
24522;DHT22;12680;57.804;12.190;2022-10-23T15:41:46;13.60;99.90
24522;DHT22;12680;57.804;12.190;2022-10-23T15:44:16;13.60;99.90
24522;DHT22;12680;57.804;12.190;2022-10-23T15:46:43;13.60;99.90
24522;DHT22;12680;57.804;12.190;2022-10-23T15:49:11;13.60;99.90
24522;DHT22;12680;57.804;12.190;2022-10-23T15:51:39;13.60;99.90
24522;DHT22;12680;57.804;12.190;2022-10-23T15:54:09;13.50;99.90
24522;DHT22;12680;57.804;12.190;2022-10-23T15:56:38;13.40;99.90
24522;DHT22;12680;57.804;12.190;2022-10-23T15:59:06;13.40;99.90
24522;DHT22;12680;57.804;12.190;2022-10-23T16:01:33;13.40;99.90
24522;DHT22;12680;57.804;12.190;2022-10-23T16:04:04;13.40;99.90
24522;DHT22;12680;57.804;12.190;2022-10-23T16:06:32;13.40;99.90
24522;DHT22;12680;57.804;12.190;2022-10-23T16:08:59;13.30;99.90
24522;DHT22;12680;57.804;12.190;2022-10-23T16:11:30;13.30;99.90
24522;DHT22;12680;57.804;12.190;2022-10-23T16:13:58;13.30;99.90
24522;DHT22;12680;57.804;12.190;2022-10-23T16:16:27;13.30;99.90
24522;DHT22;12680;57.804;12.190;2022-10-23T16:18:57;13.30;99.90
24522;DHT22;12680;57.804;12.190;2022-10-23T16:21:27;13.30;99.90
24522;DHT22;12680;57.804;12.190;2022-10-23T16:23:56;13.20;99.90
24522;DHT22;12680;57.804;12.190;2022-10-23T16:26:24;13.20;99.90
24522;DHT22;12680;57.804;12.190;2022-10-23T16:28:56;13.20;99.90
24522;DHT22;12680;57.804;12.190;2022-10-23T16:31:23;13.20;99.90
24522;DHT22;12680;57.804;12.190;2022-10-23T16:33:51;13.20;99.90
24522;DHT22;12680;57.804;12.190;2022-10-23T16:36:19;13.10;99.90
24522;DHT22;12680;57.804;12.190;2022-10-23T16:38:46;13.10;99.90
24522;DHT22;12680;57.804;12.190;2022-10-23T16:41:14;13.10;99.90
24522;DHT22;12680;57.804;12.190;2022-10-23T16:43:41;13.10;99.90
24522;DHT22;12680;57.804;12.190;2022-10-23T16:46:17;13.10;99.90
24522;DHT22;12680;57.804;12.190;2022-10-23T16:48:44;13.10;99.90
24522;DHT22;12680;57.804;12.190;2022-10-23T16:51:14;13.10;99.90
24522;DHT22;12680;57.804;12.190;2022-10-23T16:53:42;13.10;99.90
24522;DHT22;12680;57.804;12.190;2022-10-23T16:56:11;13.10;99.90
24522;DHT22;12680;57.804;12.190;2022-10-23T16:58:39;13.10;99.90
24522;DHT22;12680;57.804;12.190;2022-10-23T17:01:12;13.10;99.90
24522;DHT22;12680;57.804;12.190;2022-10-23T17:03:43;13.10;99.90
24522;DHT22;12680;57.804;12.190;2022-10-23T17:06:12;13.10;99.90
24522;DHT22;12680;57.804;12.190;2022-10-23T17:08:39;13.00;99.90
24522;DHT22;12680;57.804;12.190;2022-10-23T17:11:21;13.10;99.90
24522;DHT22;12680;57.804;12.190;2022-10-23T17:13:52;13.10;99.90
24522;DHT22;12680;57.804;12.190;2022-10-23T17:16:34;13.10;99.90
24522;DHT22;12680;57.804;12.190;2022-10-23T17:19:03;13.10;99.90
24522;DHT22;12680;57.804;12.190;2022-10-23T17:21:51;13.10;99.90
24522;DHT22;12680;57.804;12.190;2022-10-23T17:24:19;13.10;99.90
24522;DHT22;12680;57.804;12.190;2022-10-23T17:26:46;13.10;99.90
24522;DHT22;12680;57.804;12.190;2022-10-23T17:29:14;13.10;99.90
24522;DHT22;12680;57.804;12.190;2022-10-23T17:31:44;13.10;99.90
24522;DHT22;12680;57.804;12.190;2022-10-23T17:34:17;13.10;99.90
24522;DHT22;12680;57.804;12.190;2022-10-23T17:36:48;13.10;99.90
24522;DHT22;12680;57.804;12.190;2022-10-23T17:39:18;13.10;99.90
24522;DHT22;12680;57.804;12.190;2022-10-23T17:41:46;13.10;99.90
24522;DHT22;12680;57.804;12.190;2022-10-23T17:44:14;13.10;99.90
24522;DHT22;12680;57.804;12.190;2022-10-23T17:46:41;13.10;99.90
24522;DHT22;12680;57.804;12.190;2022-10-23T17:49:09;13.10;99.90